Time;durP1;ratioP1;P1;durP2;ratioP2;P2;SDS_P1;SDS_P2;PMS_P1;PMS_P2;Temp;Humidity;BMP_temperature;BMP_pressure;BME280_temperature;BME280_humidity;BME280_pressure;Samples;Min_cycle;Max_cycle;Signal;HPM_P1;HPM_P2
2022/06/18 00:00:20;;;;;;;10.63;6.78;;;;;;;-143.10;100.00;51128.16;4850653;29;20161;-66
2022/06/18 00:03:03;;;;;;;15.07;6.93;;;;;;;-143.10;100.00;51116.41;4850372;29;20161;-66
2022/06/18 00:06:03;;;;;;;16.98;8.45;;;;;;;-143.10;100.00;51145.78;4851979;29;20137;-66
2022/06/18 00:08:52;;;;;;;13.25;8.35;;;;;;;-143.10;100.00;51122.28;4839315;29;20166;-66
2022/06/18 00:14:43;;;;;;;28.02;15.68;;;;;;;-143.10;100.00;51151.66;4845431;29;20057;-67
2022/06/18 00:17:32;;;;;;;30.85;17.63;;;;;;;-143.10;100.00;51106.63;4830465;29;20166;-67
2022/06/18 00:20:16;;;;;;;34.33;17.58;;;;;;;-143.10;100.00;51128.16;4839451;29;20072;-66
2022/06/18 00:23:07;;;;;;;27.92;17.02;;;;;;;-143.10;100.00;51149.69;4835145;29;20130;-66
2022/06/18 00:25:52;;;;;;;29.98;15.95;;;;;;;-143.10;100.00;51128.16;4835855;29;20056;-66
2022/06/18 00:28:42;;;;;;;25.65;14.90;;;;;;;-143.10;100.00;51120.31;4835663;29;20054;-66
2022/06/18 00:31:24;;;;;;;25.95;14.93;;;;;;;-143.10;100.00;51132.06;4812258;29;20077;-67
2022/06/18 00:34:13;;;;;;;23.73;13.38;;;;;;;-143.10;100.00;51124.22;4848462;29;20081;-66
2022/06/18 00:37:04;;;;;;;26.38;14.40;;;;;;;-143.10;100.00;51155.56;4836991;29;20077;-66
2022/06/18 00:39:46;;;;;;;29.48;14.20;;;;;;;-143.10;100.00;51128.16;4836744;29;20113;-66
2022/06/18 00:42:37;;;;;;;26.45;14.88;;;;;;;-143.10;100.00;51124.22;4835667;29;20061;-66
2022/06/18 00:45:25;;;;;;;21.77;13.70;;;;;;;-143.10;100.00;51116.41;4850152;29;20053;-66
2022/06/18 00:48:22;;;;;;;23.23;14.02;;;;;;;-143.10;100.00;51116.41;4853125;29;20354;-66
2022/06/18 00:52:02;;;;;;;26.05;13.55;;;;;;;-143.10;100.00;51114.44;4845027;29;20137;-66
2022/06/18 00:55:09;;;;;;;24.27;13.30;;;;;;;-143.10;100.00;51120.31;4795610;29;20047;-66
2022/06/18 00:58:46;;;;;;;25.52;14.07;;;;;;;-143.10;100.00;51116.41;4824257;29;20058;-66
2022/06/18 01:01:45;;;;;;;27.63;14.85;;;;;;;-143.10;100.00;51108.56;4815066;29;20533;-66
2022/06/18 01:04:36;;;;;;;32.13;17.25;;;;;;;-143.10;100.00;51092.91;4835773;29;20049;-66
2022/06/18 01:07:44;;;;;;;37.35;18.67;;;;;;;-143.10;100.00;51128.16;4823305;29;20070;-66
2022/06/18 01:10:37;;;;;;;36.50;20.15;;;;;;;-143.10;100.00;51126.19;4835783;29;20061;-66
2022/06/18 01:13:32;;;;;;;33.97;19.38;;;;;;;-143.10;100.00;51100.75;4818657;29;20058;-66
2022/06/18 01:16:20;;;;;;;39.80;21.83;;;;;;;-143.10;100.00;51141.84;4833907;29;20057;-66
2022/06/18 01:19:19;;;;;;;40.35;22.02;;;;;;;-143.10;100.00;51130.09;4848118;29;20289;-67
2022/06/18 01:22:39;;;;;;;39.53;23.48;;;;;;;-143.10;100.00;51069.41;4849642;29;20057;-66
2022/06/18 01:25:30;;;;;;;49.83;23.13;;;;;;;-143.10;100.00;51112.50;4833005;29;20072;-66
2022/06/18 01:28:17;;;;;;;48.92;25.23;;;;;;;-143.10;100.00;51134.03;4849066;29;20070;-67
2022/06/18 01:31:05;;;;;;;50.75;24.92;;;;;;;-143.10;100.00;51165.34;4833975;29;20358;-66
2022/06/18 01:33:49;;;;;;;48.75;25.80;;;;;;;-143.10;100.00;51118.34;4832718;29;20775;-67
2022/06/18 01:36:42;;;;;;;47.65;25.60;;;;;;;-143.10;100.00;51134.03;4815591;29;20065;-67
2022/06/18 01:39:31;;;;;;;49.30;25.17;;;;;;;-143.10;100.00;51124.22;4838822;29;20102;-67
2022/06/18 01:42:34;;;;;;;43.17;21.38;;;;;;;-143.10;100.00;51092.91;4819334;29;20073;-67
2022/06/18 01:45:23;;;;;;;38.30;20.27;;;;;;;-143.10;100.00;51118.34;4832141;29;20053;-66
2022/06/18 01:48:42;;;;;;;30.08;16.95;;;;;;;-143.10;100.00;51083.13;4830791;29;20122;-67
2022/06/18 01:51:33;;;;;;;27.65;16.52;;;;;;;-143.10;100.00;51128.16;4800068;29;20149;-67
2022/06/18 01:54:42;;;;;;;;;;;;;;;-143.10;100.00;51104.66;4818441;29;20141;-67
2022/06/18 01:57:32;;;;;;;26.27;14.38;;;;;;;-143.10;100.00;51096.81;4837566;29;19951;-67
2022/06/18 02:00:26;;;;;;;30.17;15.80;;;;;;;-143.10;97.98;51096.81;4838009;29;20065;-67
2022/06/18 02:03:10;;;;;;;23.35;12.70;;;;;;;-143.10;95.15;51092.91;4846697;29;20192;-67
2022/06/18 02:05:59;;;;;;;23.38;12.27;;;;;;;-143.10;93.33;51073.34;4845260;29;20053;-67
2022/06/18 02:08:48;;;;;;;23.33;14.18;;;;;;;-143.10;93.30;51067.47;4851065;29;20049;-67
2022/06/18 02:11:39;;;;;;;23.13;12.80;;;;;;;-143.10;92.23;51069.41;4851227;29;20053;-67
2022/06/18 02:14:27;;;;;;;21.05;11.88;;;;;;;-143.10;90.06;51106.63;4839084;29;20061;-67
2022/06/18 02:17:19;;;;;;;18.33;10.40;;;;;;;-143.10;90.83;51075.28;4857349;29;20157;-67
2022/06/18 02:20:16;;;;;;;17.98;11.77;;;;;;;-143.10;91.75;51073.34;4849193;29;20045;-67
2022/06/18 02:23:02;;;;;;;18.35;10.52;;;;;;;-143.10;92.79;51092.91;4865020;29;20117;-67
2022/06/18 02:25:52;;;;;;;21.70;10.93;;;;;;;-143.10;90.96;51057.66;4850853;29;20350;-66
2022/06/18 02:28:50;;;;;;;20.75;9.70;;;;;;;-143.10;88.30;51055.72;4852274;29;20049;-65
2022/06/18 02:31:39;;;;;;;15.52;9.30;;;;;;;-143.10;90.88;51083.13;4849064;29;20441;-66
2022/06/18 02:34:26;;;;;;;16.08;9.10;;;;;;;-143.10;88.33;51077.25;4835853;29;20798;-66
2022/06/18 02:37:26;;;;;;;21.10;8.90;;;;;;;-143.10;87.35;51034.19;4851451;29;20061;-66
2022/06/18 02:40:27;;;;;;;20.33;8.50;;;;;;;-143.10;83.64;51077.25;4835974;29;20375;-66
2022/06/18 02:43:09;;;;;;;15.27;9.60;;;;;;;-143.10;82.25;51061.59;4851597;29;20061;-66
2022/06/18 02:46:01;;;;;;;18.60;8.50;;;;;;;-143.10;83.25;51096.81;4838113;29;20227;-66
2022/06/18 02:48:44;;;;;;;18.33;7.78;;;;;;;-143.10;81.38;51073.34;4851722;29;20077;-66
2022/06/18 02:51:35;;;;;;;14.63;7.25;;;;;;;-143.10;85.54;51087.03;4852204;29;20057;-66
2022/06/18 02:54:19;;;;;;;13.63;7.85;;;;;;;-143.10;82.19;51077.25;4852806;29;20397;-67
2022/06/18 02:57:16;;;;;;;27.10;7.97;;;;;;;-143.10;83.29;51063.53;4866644;29;20053;-67
2022/06/18 03:00:08;;;;;;;14.98;7.28;;;;;;;-143.10;80.52;51061.59;4866598;29;20037;-67
2022/06/18 03:02:51;;;;;;;14.60;6.95;;;;;;;-143.10;76.41;51081.16;4851275;29;20061;-66
2022/06/18 03:05:41;;;;;;;14.10;5.93;;;;;;;-143.10;79.84;51094.88;4851060;29;20060;-66
2022/06/18 03:08:32;;;;;;;12.40;6.80;;;;;;;-143.10;83.92;51079.19;4838811;29;20054;-66
2022/06/18 03:14:31;;;;;;;12.30;5.43;;;;;;;-143.10;81.41;51065.50;4847908;29;20058;-67
2022/06/18 03:17:21;;;;;;;11.90;4.88;;;;;;;-143.10;80.24;51061.59;4847206;29;20132;-66
2022/06/18 03:20:19;;;;;;;13.15;6.10;;;;;;;-143.10;76.00;51061.59;4832734;29;20080;-66
2022/06/18 03:23:17;;;;;;;14.88;6.90;;;;;;;-143.10;77.16;51053.75;4817104;29;20050;-68
2022/06/18 03:26:01;;;;;;;11.10;6.25;;;;;;;-143.10;80.46;51055.72;4847913;29;20095;-68
2022/06/18 03:28:56;;;;;;;14.75;5.75;;;;;;;-143.10;77.66;51065.50;4847854;29;20053;-68
2022/06/18 03:31:45;;;;;;;13.43;5.32;;;;;;;-143.10;79.56;51057.66;4831924;29;20069;-68
2022/06/18 03:34:36;;;;;;;11.98;5.30;;;;;;;-143.10;78.92;51034.19;4832778;29;20133;-68
2022/06/18 03:37:18;;;;;;;9.38;5.20;;;;;;;-143.10;77.76;51085.06;4839821;29;20153;-67
2022/06/18 03:40:11;;;;;;;11.43;5.78;;;;;;;-143.10;78.10;51075.28;4866562;29;20102;-67
2022/06/18 03:42:54;;;;;;;11.10;5.90;;;;;;;-143.10;78.00;51045.91;4861290;29;20693;-68
2022/06/18 03:45:45;;;;;;;12.52;5.72;;;;;;;-143.10;83.30;51079.19;4845004;29;20073;-67
2022/06/18 03:48:56;;;;;;;12.05;6.00;;;;;;;-143.10;82.28;51089.00;4846378;29;20406;-68
2022/06/18 03:51:45;;;;;;;10.13;5.85;;;;;;;-143.10;82.40;51059.63;4835054;29;20132;-70
2022/06/18 03:54:35;;;;;;;13.10;5.28;;;;;;;-143.10;75.54;51028.31;4846578;29;20054;-67
2022/06/18 03:57:19;;;;;;;17.83;5.65;;;;;;;-143.10;77.85;51087.03;4830995;29;20050;-68
2022/06/18 04:00:09;;;;;;;14.57;6.20;;;;;;;-143.10;80.73;51081.16;4833676;29;20102;-68
2022/06/18 04:02:51;;;;;;;13.52;5.45;;;;;;;-143.10;81.95;51081.16;4831378;29;20065;-68
2022/06/18 04:05:46;;;;;;;14.52;6.25;;;;;;;-143.10;82.27;51112.50;4832181;29;20050;-66
2022/06/18 04:08:41;;;;;;;13.40;6.93;;;;;;;-143.10;79.57;51061.59;4840278;29;20046;-65
2022/06/18 04:11:20;;;;;;;9.20;6.00;;;;;;;-143.10;79.12;51087.03;4839118;29;20483;-65
2022/06/18 04:14:08;;;;;;;;;;;;;;;-143.10;77.25;51043.97;4813856;29;20196;-67
2022/06/18 04:17:21;;;;;;;14.45;5.80;;;;;;;-143.10;77.01;51087.03;4808405;29;19928;-65
2022/06/18 04:20:27;;;;;;;14.27;6.32;;;;;;;-143.10;78.33;51069.41;4813255;29;20142;-67
2022/06/18 04:23:06;;;;;;;13.50;5.80;;;;;;;-143.10;78.94;51051.78;4813570;29;20393;-69
2022/06/18 04:26:02;;;;;;;16.23;6.18;;;;;;;-143.10;81.50;51071.38;4813379;29;20129;-66
2022/06/18 04:28:41;;;;;;;9.95;6.15;;;;;;;-143.10;81.53;51065.50;4813820;29;20135;-67
2022/06/18 04:31:32;;;;;;;16.23;6.25;;;;;;;-143.10;84.54;51065.50;4813648;29;20054;-66
2022/06/18 04:34:15;;;;;;;12.73;6.57;;;;;;;-143.10;80.72;51075.28;4813586;29;20085;-66
2022/06/18 04:37:27;;;;;;;13.10;7.25;;;;;;;-143.10;80.77;51045.91;4810553;29;20054;-67
2022/06/18 04:40:34;;;;;;;15.57;6.20;;;;;;;-143.10;81.64;51069.41;4813795;29;20467;-67
2022/06/18 04:43:48;;;;;;;15.13;6.35;;;;;;;-143.10;83.88;51104.66;4816106;29;20054;-67
2022/06/18 04:46:38;;;;;;;16.42;6.63;;;;;;;-143.10;84.89;51053.75;4828948;29;20054;-66
2022/06/18 04:49:25;;;;;;;13.00;6.43;;;;;;;-143.10;81.48;51075.28;4829062;29;20058;-68
2022/06/18 04:52:17;;;;;;;15.93;6.57;;;;;;;-143.10;81.33;51055.72;4818370;29;20070;-69
2022/06/18 04:55:09;;;;;;;13.82;5.88;;;;;;;-143.10;79.45;51067.47;4834391;29;20057;-68
2022/06/18 04:57:58;;;;;;;9.00;5.25;;;;;;;-143.10;81.18;51034.19;4832677;29;20050;-65
2022/06/18 05:00:44;;;;;;;16.17;5.60;;;;;;;-143.10;79.09;51069.41;4831760;29;20050;-67
2022/06/18 05:03:54;;;;;;;15.25;6.60;;;;;;;-143.10;80.62;51087.03;4817260;29;20058;-67
2022/06/18 05:07:15;;;;;;;12.65;5.38;;;;;;;-143.10;83.24;51073.34;4815713;29;20057;-66
2022/06/18 05:10:27;;;;;;;9.10;5.50;;;;;;;-143.10;81.00;51073.34;4835085;29;20050;-67
2022/06/18 05:13:23;;;;;;;14.05;5.53;;;;;;;-143.10;81.22;51055.72;4849886;29;20154;-65
2022/06/18 05:16:28;;;;;;;15.68;5.82;;;;;;;-143.10;79.79;51063.53;4835289;29;20145;-66
2022/06/18 05:19:34;;;;;;;10.85;6.20;;;;;;;-143.10;78.85;51049.84;4845085;29;20428;-64
2022/06/18 05:22:10;;;;;;;11.73;5.50;;;;;;;-143.10;79.42;51038.09;4832414;29;20061;-67
2022/06/18 05:25:07;;;;;;;11.25;5.60;;;;;;;-143.10;75.85;51081.16;4818679;29;20054;-66
2022/06/18 05:27:50;;;;;;;;;;;;;;;-143.10;77.45;51053.75;4833663;29;20050;-65
2022/06/18 05:30:42;;;;;;;9.38;5.10;;;;;;;-143.10;75.49;51034.19;4818277;29;20400;-65
2022/06/18 05:33:32;;;;;;;26.98;6.20;;;;;;;-143.10;77.45;51016.56;4833466;29;20217;-67
2022/06/18 05:36:19;;;;;;;9.80;5.65;;;;;;;-143.10;75.25;51079.19;4848275;29;20046;-65
2022/06/18 05:39:09;;;;;;;7.85;4.32;;;;;;;-143.10;75.68;51036.13;4833426;29;20073;-66
2022/06/18 05:41:59;;;;;;;11.50;4.95;;;;;;;-143.10;73.99;51092.91;4834137;29;20053;-65
2022/06/18 05:44:48;;;;;;;10.85;4.57;;;;;;;-143.10;74.25;51028.31;4833345;29;20474;-65
2022/06/18 05:47:37;;;;;;;10.85;4.97;;;;;;;-143.10;76.82;51030.25;4803611;29;20134;-64
2022/06/18 05:50:26;;;;;;;11.40;4.80;;;;;;;-143.10;75.64;51049.84;4847956;29;20054;-65
2022/06/18 05:53:08;;;;;;;13.10;5.35;;;;;;;-143.10;78.57;51038.09;4844086;29;20061;-66
2022/06/18 05:56:24;;;;;;;10.60;5.22;;;;;;;-143.10;77.23;51038.09;4850999;29;20148;-65
2022/06/18 05:59:24;;;;;;;11.32;4.72;;;;;;;-143.10;73.57;51061.59;4846906;29;20602;-65
2022/06/18 06:02:19;;;;;;;15.93;4.75;;;;;;;-143.10;73.13;51014.59;4834424;29;20045;-66
2022/06/18 06:05:02;;;;;;;10.68;4.45;;;;;;;-143.10;74.63;51026.34;4849302;29;20145;-66
2022/06/18 06:07:55;;;;;;;16.60;4.95;;;;;;;-143.10;78.25;51032.22;4851231;29;20147;-66
2022/06/18 06:13:44;;;;;;;12.68;5.72;;;;;;;-143.10;73.63;51061.59;4852362;29;20140;-66
2022/06/18 06:16:33;;;;;;;9.50;3.65;;;;;;;-143.10;75.49;51069.41;4853193;29;20049;-66
2022/06/18 06:19:15;;;;;;;10.88;3.92;;;;;;;-143.10;72.11;51022.44;4853061;29;20196;-66
2022/06/18 06:22:10;;;;;;;9.77;3.88;;;;;;;-143.10;76.05;51030.25;4853431;29;20060;-65
2022/06/18 06:24:46;;;;;;;9.63;3.80;;;;;;;-143.10;73.42;51028.31;4853513;29;20061;-65
2022/06/18 06:27:34;;;;;;;13.20;4.72;;;;;;;-143.10;78.71;51016.56;4852844;29;20045;-66
2022/06/18 06:30:24;;;;;;;10.85;3.53;;;;;;;-143.10;70.22;51024.38;4853003;29;20529;-66
2022/06/18 06:33:06;;;;;;;11.20;3.28;;;;;;;-143.10;74.65;51016.56;4853479;29;20307;-66
2022/06/18 06:35:56;;;;;;;9.05;3.80;;;;;;;-143.10;73.81;51061.59;4852725;29;20053;-66
2022/06/18 06:38:39;;;;;;;10.43;3.13;;;;;;;-143.10;79.37;51028.31;4852924;29;20053;-66
2022/06/18 06:41:59;;;;;;;12.20;3.47;;;;;;;-143.10;73.01;51051.78;4851121;29;20279;-66
2022/06/18 06:44:42;;;;;;;10.40;4.63;;;;;;;-143.10;70.81;51065.50;4851552;29;20053;-66
2022/06/18 06:47:31;;;;;;;10.90;3.20;;;;;;;-143.10;75.33;51014.59;4852484;29;20542;-67
2022/06/18 06:50:21;;;;;;;12.68;3.75;;;;;;;-143.10;69.46;51040.03;4852563;29;20113;-67
2022/06/18 06:53:04;;;;;;;13.95;4.85;;;;;;;-143.10;70.49;51020.47;4851683;29;20144;-66
2022/06/18 06:58:53;;;;;;;9.82;3.20;;;;;;;-143.10;69.55;51069.41;4851976;29;20073;-67
2022/06/18 07:01:42;;;;;;;8.85;2.65;;;;;;;-143.10;70.17;51016.56;4852409;29;20049;-66
2022/06/18 07:04:25;;;;;;;14.70;3.10;;;;;;;-143.10;71.65;51045.91;4852496;29;20386;-66
2022/06/18 07:07:15;;;;;;;10.43;2.88;;;;;;;-143.10;69.45;51018.50;4851657;29;20172;-67
2022/06/18 07:10:04;;;;;;;9.98;3.60;;;;;;;-143.10;70.55;51038.09;4854781;29;20546;-67
2022/06/18 07:12:53;;;;;;;13.45;3.63;;;;;;;-143.10;73.77;51045.91;4851933;29;20084;-66
2022/06/18 07:15:43;;;;;;;11.75;3.38;;;;;;;-143.10;72.87;51026.34;4851258;29;20129;-67
2022/06/18 07:18:31;;;;;;;12.48;4.18;;;;;;;-143.10;73.68;51061.59;4851942;29;20057;-66
2022/06/18 07:21:24;;;;;;;14.43;3.22;;;;;;;-143.10;73.90;51069.41;4852034;29;20065;-66
2022/06/18 07:24:06;;;;;;;8.95;3.83;;;;;;;-143.10;73.18;51038.09;4852483;29;20045;-66
2022/06/18 07:26:55;;;;;;;8.23;3.75;;;;;;;-143.10;76.29;51030.25;4851619;29;20095;-66
2022/06/18 07:29:37;;;;;;;10.48;4.40;;;;;;;-143.10;77.84;51065.50;4852046;29;20057;-66
2022/06/18 07:32:26;;;;;;;8.73;3.35;;;;;;;-143.10;78.71;51049.84;4851348;29;20061;-67
2022/06/18 07:35:17;;;;;;;13.82;4.25;;;;;;;-143.10;69.94;51014.59;4852347;29;20473;-67
2022/06/18 07:38:05;;;;;;;13.27;3.67;;;;;;;-143.10;74.85;51022.44;4852302;29;20109;-65
2022/06/18 07:40:55;;;;;;;9.68;3.50;;;;;;;-143.10;77.72;51043.97;4852315;29;20053;-66
2022/06/18 07:43:48;;;;;;;13.38;3.70;;;;;;;-143.10;71.97;51018.50;4851671;29;20091;-66
2022/06/18 07:46:37;;;;;;;12.13;3.53;;;;;;;-143.10;78.09;51018.50;4851731;29;20077;-66
2022/06/18 07:49:26;;;;;;;12.45;3.65;;;;;;;-143.10;74.09;51030.25;4851719;29;20081;-66
2022/06/18 07:52:16;;;;;;;14.10;3.80;;;;;;;-143.10;79.33;51038.09;4851638;29;20089;-66
2022/06/18 07:54:58;;;;;;;13.38;3.88;;;;;;;-143.10;79.27;51065.50;4852411;29;20053;-66
2022/06/18 07:57:47;;;;;;;12.18;4.57;;;;;;;-143.10;77.12;51012.63;4853649;29;20057;-66
2022/06/18 08:00:30;;;;;;;17.00;5.18;;;;;;;-143.10;78.11;51042.00;4851332;29;20145;-66
2022/06/18 08:03:19;;;;;;;11.50;5.43;;;;;;;-143.10;78.63;51008.72;4851576;29;20077;-66
2022/06/18 08:06:01;;;;;;;11.63;5.53;;;;;;;-143.10;76.66;51032.22;4852080;29;20053;-66
2022/06/18 08:08:56;;;;;;;15.05;5.75;;;;;;;-143.10;76.12;51030.25;4853799;29;20057;-65
2022/06/18 08:11:45;;;;;;;11.32;5.10;;;;;;;-143.10;76.56;51040.03;4852486;29;20512;-67
2022/06/18 08:14:34;;;;;;;14.50;5.25;;;;;;;-143.10;74.76;51030.25;4851610;29;20157;-67
2022/06/18 08:17:16;;;;;;;14.07;4.93;;;;;;;-143.10;77.58;51053.75;4850944;29;20148;-66
2022/06/18 08:20:05;;;;;;;12.98;6.10;;;;;;;-143.10;76.51;51061.59;4864660;29;20152;-66
2022/06/18 08:22:48;;;;;;;17.85;8.98;;;;;;;-143.10;75.56;50995.03;4851338;29;20050;-66
2022/06/18 08:25:38;;;;;;;25.13;9.13;;;;;;;-143.10;79.56;51028.31;4852312;29;20055;-66
2022/06/18 08:28:37;;;;;;;16.50;5.93;;;;;;;-143.10;73.31;51014.59;4853704;29;20073;-67
2022/06/18 08:31:13;;;;;;;18.30;5.47;;;;;;;-143.10;73.77;51024.38;4854282;29;20061;-65
2022/06/18 08:34:09;;;;;;;13.65;5.10;;;;;;;-143.10;72.43;51069.41;4854199;29;20060;-65
2022/06/18 08:36:45;;;;;;;21.83;6.57;;;;;;;-143.10;74.72;51038.09;4852353;29;20132;-65
2022/06/18 08:39:34;;;;;;;12.57;6.07;;;;;;;-143.10;72.83;51014.59;4852188;29;20053;-65
2022/06/18 08:42:20;;;;;;;21.52;8.32;;;;;;;-143.10;75.82;51006.75;4852686;29;20049;-65
2022/06/18 08:45:33;;;;;;;15.65;5.82;;;;;;;-143.10;72.55;51051.78;4853290;29;20144;-65
2022/06/18 08:48:32;;;;;;;17.13;6.65;;;;;;;-143.10;72.90;51026.34;4853566;29;20054;-65
2022/06/18 08:51:41;;;;;;;12.30;6.47;;;;;;;-143.10;72.99;51014.59;4853575;29;20072;-66
2022/06/18 08:54:55;;;;;;;19.95;6.35;;;;;;;-143.10;72.17;51057.66;4853311;29;20178;-66
2022/06/18 08:57:57;;;;;;;16.38;6.75;;;;;;;-143.10;74.80;51042.00;4853217;29;20053;-66
2022/06/18 09:01:07;;;;;;;16.08;7.47;;;;;;;-143.10;74.15;51038.09;4852817;29;20049;-66
2022/06/18 09:04:08;;;;;;;15.23;6.57;;;;;;;-143.10;74.63;51032.22;4852637;29;20042;-66
2022/06/18 09:07:40;;;;;;;13.30;6.53;;;;;;;-143.10;74.34;51022.44;4851637;29;20124;-66
2022/06/18 09:11:06;;;;;;;16.67;6.57;;;;;;;-143.10;76.39;51030.25;4853883;29;20137;-66
2022/06/18 09:14:18;;;;;;;16.33;7.10;;;;;;;-143.10;74.55;51014.59;4852283;29;20129;-66
2022/06/18 09:17:14;;;;;;;14.48;6.40;;;;;;;-143.10;73.24;51069.41;4852482;29;20481;-66
2022/06/18 09:20:06;;;;;;;18.23;6.60;;;;;;;-143.10;76.02;51034.19;4861857;29;20106;-68
2022/06/18 09:22:58;;;;;;;13.77;5.93;;;;;;;-143.10;80.29;50995.03;4851429;29;20120;-67
2022/06/18 09:25:50;;;;;;;12.32;5.85;;;;;;;-143.10;74.95;50991.09;4849372;29;20049;-67
2022/06/18 09:28:46;;;;;;;18.02;7.50;;;;;;;-143.10;77.12;51024.38;4835460;29;20499;-66
2022/06/18 09:31:42;;;;;;;15.95;5.97;;;;;;;-143.10;74.06;50985.22;4834452;29;20118;-67
2022/06/18 09:34:57;;;;;;;14.57;5.57;;;;;;;-143.10;72.66;51038.09;4853717;29;20125;-66
2022/06/18 09:37:54;;;;;;;13.75;6.43;;;;;;;-143.10;73.86;50995.03;4853259;29;20053;-67
2022/06/18 09:40:50;;;;;;;17.85;5.93;;;;;;;-143.10;75.16;51016.56;4853769;29;20486;-67
2022/06/18 09:43:37;;;;;;;15.32;7.30;;;;;;;-143.10;78.42;51032.22;4853700;29;20057;-67
2022/06/18 09:46:38;;;;;;;17.98;6.63;;;;;;;-143.10;75.49;51012.63;4853192;29;20061;-64
2022/06/18 09:49:20;;;;;;;14.93;6.65;;;;;;;-143.10;74.65;51004.81;4867511;29;20045;-65
2022/06/18 09:52:26;;;;;;;12.90;5.82;;;;;;;-143.10;72.64;51000.91;4853537;29;20145;-66
2022/06/18 09:55:22;;;;;;;12.75;6.07;;;;;;;-143.10;73.00;51028.31;4871674;29;20052;-66
2022/06/18 09:58:26;;;;;;;14.18;6.88;;;;;;;-143.10;77.04;51004.81;4870936;29;20559;-64
2022/06/18 10:01:14;;;;;;;13.00;5.85;;;;;;;-143.10;73.21;50991.09;4856140;29;20046;-65
2022/06/18 10:07:14;;;;;;;14.10;6.88;;;;;;;-143.10;73.43;51018.50;4852873;29;20080;-65
2022/06/18 10:10:19;;;;;;;18.40;7.35;;;;;;;-143.10;76.25;51000.91;4848264;29;20157;-65
2022/06/18 10:13:06;;;;;;;13.10;7.20;;;;;;;-143.10;78.67;51040.03;4834681;29;20141;-65
2022/06/18 10:15:55;;;;;;;13.68;7.20;;;;;;;-143.10;78.72;51026.34;4834335;29;20594;-66
2022/06/18 10:19:02;;;;;;;15.07;7.30;;;;;;;-143.10;80.34;50996.97;4835031;29;20068;-66
2022/06/18 10:22:30;;;;;;;12.85;6.53;;;;;;;-143.10;81.50;51020.47;4835196;29;20061;-66
2022/06/18 10:25:41;;;;;;;13.77;6.50;;;;;;;-143.10;79.79;51000.91;4833981;29;20058;-66
2022/06/18 10:29:00;;;;;;;16.02;7.03;;;;;;;-143.10;77.17;51014.59;4834175;29;20046;-67
2022/06/18 10:31:56;;;;;;;18.83;7.18;;;;;;;-143.10;79.43;50996.97;4834441;29;20126;-66
2022/06/18 10:35:10;;;;;;;15.20;6.70;;;;;;;-143.10;79.56;50996.97;4834402;29;20068;-66
2022/06/18 10:38:15;;;;;;;23.23;7.90;;;;;;;-143.10;79.29;51036.13;4834091;29;20122;-67
2022/06/18 10:41:10;;;;;;;18.73;6.88;;;;;;;-143.10;78.04;51055.72;4818917;29;20056;-66
2022/06/18 10:44:08;;;;;;;20.67;6.93;;;;;;;-143.10;77.30;51045.91;4833047;29;20053;-65
2022/06/18 10:47:17;;;;;;;13.52;7.15;;;;;;;-143.10;76.86;51022.44;4832745;29;20154;-67
2022/06/18 10:50:11;;;;;;;20.15;6.63;;;;;;;-143.10;75.85;51008.72;4841861;29;20464;-66
2022/06/18 10:53:08;;;;;;;20.15;6.28;;;;;;;-143.10;76.56;51010.69;4816167;29;20498;-66
2022/06/18 10:56:18;;;;;;;23.50;5.97;;;;;;;-143.10;77.82;51000.91;4816057;29;20149;-67
2022/06/18 10:59:10;;;;;;;18.15;6.63;;;;;;;-143.10;76.56;51016.56;4816099;29;20049;-67
2022/06/18 11:02:34;;;;;;;17.42;5.55;;;;;;;-143.10;77.00;51006.75;4834249;29;20113;-66
2022/06/18 11:05:35;;;;;;;16.02;6.07;;;;;;;-143.10;75.86;51012.63;4833857;29;20064;-67
2022/06/18 11:08:30;;;;;;;11.10;5.20;;;;;;;-143.10;76.13;51034.19;4833840;29;20081;-66
2022/06/18 11:11:26;;;;;;;20.15;5.60;;;;;;;-143.10;76.12;51034.19;4837759;29;20061;-66
2022/06/18 11:14:18;;;;;;;12.57;5.73;;;;;;;-143.10;75.80;51000.91;4833793;29;20145;-66
2022/06/18 11:17:03;;;;;;;11.95;5.15;;;;;;;-143.10;76.68;51010.69;4834079;29;20746;-65
2022/06/18 11:19:52;;;;;;;15.65;5.10;;;;;;;-143.10;77.87;51024.38;4834259;29;20149;-66
2022/06/18 11:22:36;;;;;;;20.15;7.07;;;;;;;-143.10;76.75;50989.16;4833848;29;20074;-66
2022/06/18 11:25:30;;;;;;;16.60;5.38;;;;;;;-143.10;74.68;51020.47;4832524;29;20061;-66
2022/06/18 11:28:28;;;;;;;11.80;4.60;;;;;;;-143.10;74.83;51032.22;4833399;29;20081;-65
2022/06/18 11:31:45;;;;;;;12.77;4.82;;;;;;;-143.10;75.93;51067.47;4833567;29;20121;-65
2022/06/18 11:34:43;;;;;;;12.43;5.30;;;;;;;-143.10;81.30;50991.09;4833717;29;20149;-66
2022/06/18 11:37:33;;;;;;;13.40;5.53;;;;;;;-143.10;78.02;50998.94;4833809;29;20109;-66
2022/06/18 11:40:18;;;;;;;14.45;6.15;;;;;;;-143.10;78.00;51028.31;4833235;29;20079;-65
2022/06/18 11:43:27;;;;;;;15.20;5.20;;;;;;;-143.10;77.95;51051.78;4833723;29;20065;-65
2022/06/18 11:46:26;;;;;;;18.92;5.63;;;;;;;-143.10;78.44;50998.94;4837878;29;20085;-65
2022/06/18 11:49:18;;;;;;;19.05;5.90;;;;;;;-143.10;77.45;51040.03;4834310;29;20118;-65
2022/06/18 11:52:30;;;;;;;18.13;5.82;;;;;;;-143.10;79.32;50995.03;4833244;29;20050;-65
2022/06/18 11:55:17;;;;;;;19.00;5.90;;;;;;;-143.10;79.54;51010.69;4832538;29;20089;-66
2022/06/18 11:58:30;;;;;;;16.02;5.20;;;;;;;-143.10;79.08;50975.44;4833751;29;20137;-67
2022/06/18 12:01:31;;;;;;;33.80;5.20;;;;;;;-143.10;74.64;51081.16;4836394;29;20070;-67
2022/06/18 12:04:30;;;;;;;33.72;3.83;;;;;;;-143.10;74.89;51065.50;4836535;29;20090;-66
2022/06/18 12:07:37;;;;;;;34.70;4.82;;;;;;;-143.10;75.74;51026.34;4837036;29;20135;-66
2022/06/18 12:10:49;;;;;;;29.60;4.38;;;;;;;-143.10;78.39;51043.97;4847738;29;20257;-65
2022/06/18 12:13:54;;;;;;;63.95;6.85;;;;;;;-143.10;80.00;51057.66;4855412;29;20141;-65
2022/06/18 12:16:58;;;;;;;53.95;5.55;;;;;;;-143.10;78.63;51036.13;4869631;29;20105;-66
2022/06/18 12:20:04;;;;;;;49.70;5.55;;;;;;;-143.10;80.02;51042.00;4855235;29;20060;-68
2022/06/18 12:23:13;;;;;;;48.35;6.75;;;;;;;-143.10;79.51;51053.75;4849155;29;20053;-66
2022/06/18 12:26:21;;;;;;;46.08;5.88;;;;;;;-143.10;79.95;51024.38;4838882;29;20053;-67
2022/06/18 12:29:17;;;;;;;23.15;4.97;;;;;;;-143.10;80.85;51053.75;4853594;29;20450;-66
2022/06/18 12:32:06;;;;;;;15.33;4.43;;;;;;;-143.10;81.21;51065.50;4855668;29;20156;-67
2022/06/18 12:35:22;;;;;;;24.45;4.45;;;;;;;-143.10;83.01;51053.75;4854544;29;20401;-66
2022/06/18 12:38:32;;;;;;;11.50;3.85;;;;;;;-143.10;84.81;51051.78;4854513;29;20049;-67
2022/06/18 12:41:38;;;;;;;24.27;4.18;;;;;;;-143.10;83.26;51038.09;4854818;29;20117;-67
2022/06/18 12:44:46;;;;;;;16.65;3.83;;;;;;;-143.10;83.70;51042.00;4854719;29;20054;-67
2022/06/18 12:47:55;;;;;;;13.65;3.80;;;;;;;-143.10;83.74;51069.41;4854351;29;20057;-66
2022/06/18 12:51:17;;;;;;;15.15;4.32;;;;;;;-143.10;86.35;51057.66;4854973;29;20045;-66
2022/06/18 12:54:30;;;;;;;11.27;4.00;;;;;;;-143.10;87.18;51065.50;4854951;29;20117;-66
2022/06/18 12:57:42;;;;;;;13.30;4.60;;;;;;;-143.10;89.59;51030.25;4868994;29;20064;-66
2022/06/18 13:00:43;;;;;;;11.50;4.70;;;;;;;-143.10;91.35;51089.00;4854618;29;20053;-66
2022/06/18 13:03:43;;;;;;;12.60;6.47;;;;;;;-143.10;93.13;51026.34;4854591;29;20084;-66
2022/06/18 13:06:44;;;;;;;11.23;5.85;;;;;;;-143.10;94.77;51053.75;4854574;29;20069;-67
2022/06/18 13:09:41;;;;;;;13.10;5.93;;;;;;;-143.10;96.25;51061.59;4854105;29;20050;-66
2022/06/18 13:13:07;;;;;;;12.95;6.30;;;;;;;-143.10;98.08;51034.19;4852375;29;20054;-65
2022/06/18 13:16:11;;;;;;;12.27;5.05;;;;;;;-143.10;98.90;51038.09;4836093;29;20045;-66
2022/06/18 13:18:46;;;;;;;16.02;5.47;;;;;;;-143.10;99.43;51073.34;4835745;29;20111;-66
2022/06/18 13:21:43;;;;;;;20.35;5.85;;;;;;;-143.10;100.00;51087.03;4834360;29;20626;-66
2022/06/18 13:31:07;;;;;;;4.93;1.90;;;;;;;-143.10;95.60;51077.25;4834848;29;20170;-65
2022/06/18 13:34:11;;;;;;;7.60;2.50;;;;;;;-143.10;96.54;51077.25;4835398;29;20125;-66
2022/06/18 13:37:11;;;;;;;6.45;2.35;;;;;;;-143.10;98.06;51085.06;4835427;29;20646;-66